EZY47EW EGKK-LCPH
Flight info
| Callsign | EZY47EW |
|---|---|
| Flight time | N/A |
| Altitude | 37000 |
| Route | BOGNA L612 XAMAB UL612 VEULE DCT TEPRI DCT POGZI DCT GELTA DCT LUVAL DCT BEGAR DCT TRA DCT SUXAN DCT ROKIB DCT ROTAR DCT VAKSU DCT KOFER DCT UNDER DCT PINDO DCT LUSES DCT NEVRA DCT AKINA DCT LINRO UL52 VAXOS UM978 TOSKA DCT TOBAL |
| Aircraft | A20N/M-SDE2E3FGHIRWXY/LB1 |
Departure
| Time | 2026-04-18 09:40 |
|---|---|
| Airport | London Gatwick Airport (EGKK) |
Arrival
| Time | N/A |
|---|---|
| Airport | Paphos International Airport (LCPH) |
| Time | Latitude | Longitude | Altitude | Speed | Heading |
|---|---|---|---|---|---|
| 2026-04-18 09:02 | 51.15661 | -0.17696 | 197 ft | 0 kts | 168° |
| 2026-04-18 09:30 | 51.15662 | -0.17696 | 197 ft | 1 kts | 168° |
| 2026-04-18 09:30 | 51.15676 | -0.17700 | 197 ft | 2 kts | 168° |
| 2026-04-18 09:31 | 51.15691 | -0.17706 | 197 ft | 2 kts | 168° |
| 2026-04-18 09:31 | 51.15705 | -0.17711 | 197 ft | 2 kts | 167° |
| 2026-04-18 09:31 | 51.15719 | -0.17720 | 197 ft | 2 kts | 137° |
| 2026-04-18 09:31 | 51.15728 | -0.17739 | 197 ft | 2 kts | 96° |
| 2026-04-18 09:32 | 51.15725 | -0.17762 | 197 ft | 2 kts | 73° |
| 2026-04-18 09:32 | 51.15723 | -0.17772 | 197 ft | 0 kts | 80° |
| 2026-04-18 09:34 | 51.15726 | -0.17749 | 197 ft | 5 kts | 79° |
| 2026-04-18 09:34 | 51.15741 | -0.17637 | 197 ft | 13 kts | 77° |
| 2026-04-18 09:34 | 51.15726 | -0.17501 | 197 ft | 13 kts | 154° |
| 2026-04-18 09:35 | 51.15632 | -0.17471 | 198 ft | 13 kts | 168° |
| 2026-04-18 09:35 | 51.15532 | -0.17436 | 198 ft | 16 kts | 169° |
| 2026-04-18 09:35 | 51.15436 | -0.17403 | 199 ft | 4 kts | 167° |
| 2026-04-18 09:35 | 51.15434 | -0.17402 | 199 ft | 0 kts | 168° |
| 2026-04-18 09:36 | 51.15402 | -0.17391 | 199 ft | 11 kts | 167° |
| 2026-04-18 09:36 | 51.15296 | -0.17354 | 200 ft | 16 kts | 168° |
| 2026-04-18 09:36 | 51.15203 | -0.17264 | 201 ft | 15 kts | 131° |
| 2026-04-18 09:37 | 51.15190 | -0.17114 | 201 ft | 14 kts | 76° |
| 2026-04-18 09:37 | 51.15210 | -0.16958 | 202 ft | 14 kts | 78° |
| 2026-04-18 09:37 | 51.15216 | -0.16915 | 202 ft | 0 kts | 77° |
| 2026-04-18 09:38 | 51.15216 | -0.16914 | 202 ft | 0 kts | 77° |
| 2026-04-18 09:38 | 51.15219 | -0.16893 | 202 ft | 6 kts | 85° |
| 2026-04-18 09:38 | 51.15194 | -0.16804 | 202 ft | 10 kts | 146° |
| 2026-04-18 09:38 | 51.15130 | -0.16814 | 202 ft | 10 kts | 226° |
| 2026-04-18 09:39 | 51.15104 | -0.16923 | 202 ft | 10 kts | 260° |
| 2026-04-18 09:39 | 51.15088 | -0.17041 | 202 ft | 10 kts | 257° |
| 2026-04-18 09:39 | 51.15073 | -0.17155 | 202 ft | 10 kts | 258° |
| 2026-04-18 09:39 | 51.15037 | -0.17427 | 201 ft | 54 kts | 259° |
| 2026-04-18 09:40 | 51.14909 | -0.18347 | 201 ft | 114 kts | 258° |
| 2026-04-18 09:40 | 51.14702 | -0.19842 | 268 ft | 154 kts | 260° |
| 2026-04-18 09:40 | 51.14492 | -0.21539 | 690 ft | 160 kts | 261° |
| 2026-04-18 09:40 | 51.14278 | -0.23299 | 1187 ft | 167 kts | 261° |
| 2026-04-18 09:41 | 51.14019 | -0.25104 | 1742 ft | 172 kts | 260° |
| 2026-04-18 09:41 | 51.13737 | -0.27032 | 2081 ft | 192 kts | 259° |
| 2026-04-18 09:41 | 51.13427 | -0.29188 | 2524 ft | 209 kts | 260° |
| 2026-04-18 09:41 | 51.13093 | -0.31545 | 3016 ft | 225 kts | 260° |
| 2026-04-18 09:42 | 51.12751 | -0.33979 | 3733 ft | 229 kts | 259° |
| 2026-04-18 09:42 | 51.12407 | -0.36430 | 4439 ft | 231 kts | 259° |
| 2026-04-18 09:42 | 51.12044 | -0.38923 | 4859 ft | 231 kts | 254° |
| 2026-04-18 09:42 | 51.11207 | -0.41072 | 4985 ft | 237 kts | 221° |
| 2026-04-18 09:43 | 51.09678 | -0.42117 | 4986 ft | 245 kts | 188° |
| 2026-04-18 09:43 | 51.07968 | -0.41975 | 4998 ft | 248 kts | 177° |
| 2026-04-18 09:43 | 51.06227 | -0.41687 | 5011 ft | 263 kts | 178° |
| 2026-04-18 09:43 | 51.04359 | -0.41413 | 5055 ft | 268 kts | 178° |
| 2026-04-18 09:44 | 51.02505 | -0.41159 | 5157 ft | 270 kts | 179° |
| 2026-04-18 09:44 | 51.00632 | -0.40914 | 5199 ft | 270 kts | 179° |
| 2026-04-18 09:44 | 50.98750 | -0.40672 | 5220 ft | 271 kts | 179° |
| 2026-04-18 09:44 | 50.96859 | -0.40432 | 5522 ft | 278 kts | 179° |
| 2026-04-18 09:45 | 50.94960 | -0.40190 | 6029 ft | 273 kts | 179° |
| 2026-04-18 09:45 | 50.93065 | -0.39948 | 6227 ft | 272 kts | 179° |
| 2026-04-18 09:45 | 50.91190 | -0.39711 | 6229 ft | 270 kts | 179° |
| 2026-04-18 09:45 | 50.89301 | -0.39474 | 6230 ft | 270 kts | 179° |
| 2026-04-18 09:46 | 50.87434 | -0.39237 | 6230 ft | 269 kts | 179° |
| 2026-04-18 09:46 | 50.85584 | -0.39005 | 6230 ft | 269 kts | 179° |
| 2026-04-18 09:46 | 50.83711 | -0.38601 | 6225 ft | 273 kts | 167° |
| 2026-04-18 09:46 | 50.81961 | -0.37423 | 6229 ft | 278 kts | 152° |
| 2026-04-18 09:47 | 50.80336 | -0.35783 | 6232 ft | 279 kts | 149° |
| 2026-04-18 09:47 | 50.78735 | -0.34077 | 6237 ft | 280 kts | 149° |
| 2026-04-18 09:47 | 50.77092 | -0.32333 | 6565 ft | 287 kts | 149° |
| 2026-04-18 09:47 | 50.75456 | -0.30613 | 7447 ft | 285 kts | 150° |
| 2026-04-18 09:48 | 50.73814 | -0.28898 | 8289 ft | 285 kts | 150° |
| 2026-04-18 09:48 | 50.72167 | -0.27190 | 9037 ft | 287 kts | 151° |
| 2026-04-18 09:48 | 50.70504 | -0.25473 | 9757 ft | 290 kts | 151° |
| 2026-04-18 09:48 | 50.68817 | -0.23720 | 10492 ft | 293 kts | 151° |
| 2026-04-18 09:49 | 50.67085 | -0.21907 | 10927 ft | 306 kts | 151° |
| 2026-04-18 09:49 | 50.65279 | -0.20018 | 11223 ft | 323 kts | 151° |
| 2026-04-18 09:49 | 50.63381 | -0.18033 | 11687 ft | 334 kts | 151° |
| 2026-04-18 09:49 | 50.61436 | -0.15994 | 12215 ft | 342 kts | 151° |
| 2026-04-18 09:50 | 50.59437 | -0.13902 | 12705 ft | 351 kts | 151° |
| 2026-04-18 09:50 | 50.57388 | -0.11757 | 13241 ft | 358 kts | 151° |
| 2026-04-18 09:50 | 50.55284 | -0.09557 | 13737 ft | 366 kts | 151° |
| 2026-04-18 09:50 | 50.53148 | -0.07330 | 14256 ft | 372 kts | 151° |
| 2026-04-18 09:51 | 50.50980 | -0.05074 | 14766 ft | 378 kts | 151° |
| 2026-04-18 09:51 | 50.48797 | -0.02803 | 15272 ft | 384 kts | 151° |
| 2026-04-18 09:51 | 50.46573 | -0.00491 | 15781 ft | 389 kts | 151° |
| 2026-04-18 09:51 | 50.44302 | 0.01867 | 16298 ft | 394 kts | 151° |
| 2026-04-18 09:52 | 50.42014 | 0.04238 | 16815 ft | 398 kts | 151° |
| 2026-04-18 09:52 | 50.39685 | 0.06647 | 17326 ft | 402 kts | 151° |
| 2026-04-18 09:52 | 50.37377 | 0.09036 | 17831 ft | 405 kts | 151° |
| 2026-04-18 09:52 | 50.35028 | 0.11464 | 18350 ft | 408 kts | 152° |
| 2026-04-18 09:53 | 50.32643 | 0.13925 | 18863 ft | 410 kts | 152° |
| 2026-04-18 09:53 | 50.30250 | 0.16391 | 19374 ft | 413 kts | 152° |
| 2026-04-18 09:53 | 50.27878 | 0.18833 | 19885 ft | 415 kts | 152° |
| 2026-04-18 09:53 | 50.25461 | 0.21317 | 20401 ft | 417 kts | 152° |
| 2026-04-18 09:54 | 50.23051 | 0.23791 | 20909 ft | 418 kts | 152° |
| 2026-04-18 09:54 | 50.20625 | 0.26280 | 21434 ft | 419 kts | 152° |
| 2026-04-18 09:54 | 50.18171 | 0.28801 | 21958 ft | 421 kts | 152° |
| 2026-04-18 09:54 | 50.15745 | 0.31299 | 22485 ft | 421 kts | 152° |
| 2026-04-18 09:55 | 50.13326 | 0.33786 | 22986 ft | 422 kts | 153° |
| 2026-04-18 09:55 | 50.10861 | 0.36317 | 23507 ft | 422 kts | 153° |
| 2026-04-18 09:55 | 50.08424 | 0.38818 | 24028 ft | 422 kts | 153° |
| 2026-04-18 09:55 | 50.05981 | 0.41319 | 24536 ft | 421 kts | 153° |
| 2026-04-18 09:56 | 50.03552 | 0.43803 | 25060 ft | 420 kts | 153° |
| 2026-04-18 09:56 | 50.01121 | 0.46288 | 25562 ft | 419 kts | 154° |
| 2026-04-18 09:56 | 49.98711 | 0.48747 | 26074 ft | 418 kts | 154° |
| 2026-04-18 09:56 | 49.96280 | 0.51224 | 26582 ft | 416 kts | 154° |
| 2026-04-18 09:57 | 49.93863 | 0.53684 | 27128 ft | 414 kts | 154° |
| 2026-04-18 09:57 | 49.91499 | 0.56092 | 27645 ft | 412 kts | 155° |
| 2026-04-18 09:57 | 49.89085 | 0.58539 | 28156 ft | 410 kts | 154° |
| 2026-04-18 09:57 | 49.86776 | 0.61117 | 28720 ft | 412 kts | 150° |
| 2026-04-18 09:58 | 49.84577 | 0.64030 | 29232 ft | 415 kts | 145° |
| 2026-04-18 09:58 | 49.82549 | 0.67209 | 29760 ft | 416 kts | 142° |
| 2026-04-18 09:58 | 49.80621 | 0.70482 | 30282 ft | 413 kts | 141° |
| 2026-04-18 09:58 | 49.78698 | 0.73769 | 30803 ft | 408 kts | 141° |
| 2026-04-18 09:59 | 49.76807 | 0.76991 | 31337 ft | 403 kts | 141° |
| 2026-04-18 09:59 | 49.74943 | 0.80163 | 31874 ft | 398 kts | 142° |
| 2026-04-18 09:59 | 49.73106 | 0.83281 | 32405 ft | 392 kts | 142° |
| 2026-04-18 10:00 | 49.69485 | 0.89387 | 33111 ft | 389 kts | 142° |
| 2026-04-18 10:00 | 49.67647 | 0.92470 | 33321 ft | 391 kts | 141° |
| 2026-04-18 10:00 | 49.65792 | 0.95582 | 33556 ft | 394 kts | 142° |
| 2026-04-18 10:00 | 49.63944 | 0.98683 | 33746 ft | 397 kts | 141° |
| 2026-04-18 10:01 | 49.62088 | 1.01795 | 34001 ft | 398 kts | 141° |
| 2026-04-18 10:01 | 49.60214 | 1.04931 | 34212 ft | 400 kts | 141° |
| 2026-04-18 10:01 | 49.58332 | 1.08079 | 34432 ft | 402 kts | 141° |
| 2026-04-18 10:01 | 49.56422 | 1.11272 | 34634 ft | 404 kts | 141° |
| 2026-04-18 10:02 | 49.54525 | 1.14440 | 34795 ft | 407 kts | 141° |
| 2026-04-18 10:02 | 49.52610 | 1.17630 | 34963 ft | 409 kts | 141° |
| 2026-04-18 10:02 | 49.50689 | 1.20831 | 35226 ft | 406 kts | 141° |
| 2026-04-18 10:02 | 49.48799 | 1.23984 | 35428 ft | 406 kts | 141° |
| 2026-04-18 10:03 | 49.46883 | 1.27160 | 35532 ft | 408 kts | 140° |
| 2026-04-18 10:03 | 49.42997 | 1.33596 | 35733 ft | 414 kts | 140° |
| 2026-04-18 10:04 | 49.39068 | 1.40091 | 35947 ft | 418 kts | 140° |
| 2026-04-18 10:04 | 49.37122 | 1.43315 | 36246 ft | 413 kts | 140° |
| 2026-04-18 10:04 | 49.35155 | 1.46556 | 36361 ft | 416 kts | 140° |
| 2026-04-18 10:05 | 49.31189 | 1.53075 | 36488 ft | 421 kts | 140° |
| 2026-04-18 10:05 | 49.27201 | 1.59616 | 36653 ft | 427 kts | 139° |
| 2026-04-18 10:05 | 49.25160 | 1.62958 | 36770 ft | 429 kts | 139° |
| 2026-04-18 10:06 | 49.23135 | 1.66275 | 36957 ft | 429 kts | 140° |
| 2026-04-18 10:06 | 49.21116 | 1.69577 | 37182 ft | 427 kts | 140° |
| 2026-04-18 10:06 | 49.19084 | 1.72894 | 37115 ft | 430 kts | 140° |
| 2026-04-18 10:06 | 49.17036 | 1.76230 | 37239 ft | 433 kts | 140° |
| 2026-04-18 10:07 | 49.01399 | 2.01541 | 37245 ft | 437 kts | 139° |
| 2026-04-18 10:07 | 48.67247 | 2.56054 | 37098 ft | 441 kts | 139° |
| 2026-04-18 10:07 | 48.61490 | 2.65148 | 37124 ft | 443 kts | 138° |
| 2026-04-18 10:07 | 48.59506 | 2.68596 | 37342 ft | 459 kts | 142° |
| 2026-04-18 10:08 | 48.57484 | 2.72313 | 37336 ft | 471 kts | 125° |
| 2026-04-18 10:08 | 48.56045 | 2.76970 | 37252 ft | 482 kts | 113° |
| 2026-04-18 10:08 | 48.55114 | 2.81905 | 37213 ft | 489 kts | 105° |
| 2026-04-18 10:09 | 48.54436 | 2.92128 | 37198 ft | 496 kts | 93° |
| 2026-04-18 10:09 | 48.54282 | 3.02594 | 37193 ft | 496 kts | 95° |
| 2026-04-18 10:10 | 48.53958 | 3.12857 | 37180 ft | 497 kts | 95° |
| 2026-04-18 10:10 | 48.50241 | 4.05257 | 37211 ft | 493 kts | 103° |
| 2026-04-18 10:11 | 48.37591 | 4.73099 | 37199 ft | 488 kts | 111° |
| 2026-04-18 10:11 | 48.34435 | 4.88681 | 37190 ft | 488 kts | 109° |
| 2026-04-18 10:12 | 48.14379 | 6.18310 | 37223 ft | 487 kts | 104° |
| 2026-04-18 10:12 | 48.06864 | 6.60068 | 37344 ft | 485 kts | 105° |
| 2026-04-18 10:12 | 47.94316 | 7.38802 | 36851 ft | 484 kts | 104° |
| 2026-04-18 10:12 | 47.90272 | 7.62259 | 37269 ft | 481 kts | 111° |
| 2026-04-18 10:13 | 47.90070 | 7.63048 | 37251 ft | 480 kts | 112° |
| 2026-04-18 10:13 | 47.88334 | 7.69282 | 37188 ft | 479 kts | 114° |